25 septembre 2022

Temps Code Temps Temp. Vue Base cloud Vent METAR/SPECI
2:00 am
V
52 °F 15 mi 10.000 ft 190° 190° 5 kt METAR CYOW 250600Z 19005KT 15SM OVC100 11/09 A2978 RMK AS8 SLP088
1:00 am
V
50 °F 15 mi 12.000 ft 220° 220° 3 kt METAR CYOW 250500Z 22003KT 15SM BKN120 OVC150 10/09 A2980 RMK AS6AC2 SLP093
12:00 am
V
52 °F 15 mi 16.000 ft 190° 190° 4 kt METAR CYOW 250400Z 19004KT 15SM OVC160 11/08 A2981 RMK AC8 SLP097

24 septembre 2022

Temps Code Temps Temp. Vue Base cloud Vent METAR/SPECI
11:00 pm
V
52 °F 15 mi 19.000 ft 200° 200° 5 kt METAR CYOW 250300Z 20005KT 15SM BKN190 11/08 A2981 RMK AC7 SLP100
10:00 pm
V
52 °F 15 mi 23.000 ft 180° 180° 6 kt METAR CYOW 250200Z 18006KT 15SM FEW200 BKN230 11/07 A2982 RMK CI1CI4 SLP102
9:00 pm
V
52 °F 15 mi - 200° 200° 5 kt METAR CYOW 250100Z 20005KT 15SM FEW240 11/08 A2983 RMK CI1 CI TR SLP105
8:00 pm
V
57 °F 15 mi - 240° 240° 4 kt METAR CYOW 250000Z 24004KT 15SM FEW240 14/07 A2984 RMK CI1 CI TR SLP108 DENSITY ALT 500FT
7:00 pm
V
57 °F 15 mi - 290° 290° 5 kt METAR CYOW 242300Z 29005KT 15SM FEW240 FEW280 14/07 A2984 RMK CI1CI1 CI TR CI TR SLP111 DENSITY ALT 500FT
6:00 pm
V
63 °F 15 mi - 300° 300° 9 kt METAR CYOW 242200Z 30009KT 15SM FEW240 17/07 A2985 RMK CI2 SLP113 DENSITY ALT 800FT
5:00 pm
V
64 °F 15 mi - 300° 300° 8 kt METAR CYOW 242100Z 30008KT 15SM FEW050 FEW240 18/07 A2987 RMK CU1CI2 CU TR SLP118 DENSITY ALT 900FT
4:00 pm
V
66 °F 15 mi - 280° 280° 11 - 17 kt METAR CYOW 242000Z 28011G17KT 250V310 15SM FEW050 FEW240 19/07 A2989 RMK CU1CI2 CU TR SLP124 DENSITY ALT 1000FT
3:00 pm
V
64 °F 15 mi - 300° 300° 11 - 19 kt METAR CYOW 241900Z 30011G19KT 15SM FEW050 SCT240 18/06 A2991 RMK CU1CI2 SLP133 DENSITY ALT 900FT
2:00 pm
V
64 °F 15 mi - 280° 280° 13 kt METAR CYOW 241800Z 28013KT 15SM FEW050 SCT240 18/05 A2994 RMK CU2CI1 SLP142 DENSITY ALT 800FT
1:00 pm
V
63 °F 15 mi - 290° 290° 11 kt METAR CYOW 241700Z 29011KT 15SM SCT040 17/07 A2996 RMK CU3 SLP151 DENSITY ALT 700FT
12:00 pm
V
61 °F 15 mi - 280° 280° 8 kt METAR CYOW 241600Z 28008KT 15SM FEW036 FEW240 16/07 A2997 RMK CF1CI1 SLP155 DENSITY ALT 500FT
11:00 am
V
55 °F 15 mi - 280° 280° 8 kt METAR CYOW 241500Z 28008KT 15SM SKC 13/08 A3000 RMK SLP164
10:00 am
V
54 °F 15 mi - 280° 280° 9 kt METAR CYOW 241400Z 28009KT 15SM SKC 12/07 A3001 RMK SLP168
9:00 am
V
48 °F 15 mi - 290° 290° 10 kt METAR CYOW 241300Z 29010KT 15SM FEW010 09/07 A3001 RMK CF1 CF TR SLP168
8:00 am
V
45 °F 15 mi - 280° 280° 7 kt METAR CYOW 241200Z 28007KT 15SM FEW010 FEW150 07/06 A3002 RMK CF1AC1 CF TR AC TR SLP170
7:00 am
V
39 °F 15 mi - 250° 250° 4 kt METAR CYOW 241100Z 25004KT 15SM FEW010 FEW150 04/04 A3003 RMK CF1AC1 CF TR AC TR SLP174
6:00 am
V
39 °F 15 mi - 240° 240° 6 kt METAR CYOW 241000Z 24006KT 15SM FEW008 FEW100 04/04 A3002 RMK CF1AC1 CF TR AC TR SLP170
5:00 am
V
41 °F 15 mi - 280° 280° 7 kt METAR CYOW 240900Z 28007KT 15SM FEW010 05/04 A3002 RMK SC1 SC TR SLP170
4:00 am
V
39 °F 15 mi - 250° 250° 6 kt METAR CYOW 240800Z 25006KT 15SM SKC 04/03 A3003 RMK SLP173
3:00 am
V
39 °F 15 mi - 220° 220° 5 kt METAR CYOW 240700Z 22005KT 15SM SKC 04/03 A3003 RMK SLP173
2:00 am
V
39 °F 15 mi - 240° 240° 6 kt METAR CYOW 240600Z 24006KT 15SM SKC 04/03 A3003 RMK SLP176
1:00 am
V
41 °F 15 mi - 240° 240° 4 kt METAR CYOW 240500Z 24004KT 15SM SKC 05/03 A3004 RMK SLP178
12:00 am
V
45 °F 15 mi - 290° 290° 5 kt METAR CYOW 240400Z 29005KT 15SM SKC 07/04 A3006 RMK SLP183

23 septembre 2022

Temps Code Temps Temp. Vue Base cloud Vent METAR/SPECI
11:00 pm
V
46 °F 15 mi - 310° 310° 5 kt METAR CYOW 240300Z 31005KT 15SM SKC 08/04 A3006 RMK SLP183
10:00 pm
V
46 °F 15 mi - 300° 300° 6 kt METAR CYOW 240200Z 30006KT 15SM SKC 08/04 A3005 RMK SLP182
9:00 pm
V
45 °F 15 mi - 290° 290° 3 kt METAR CYOW 240100Z 29003KT 15SM SKC 07/04 A3005 RMK SLP181
8:00 pm
V
46 °F 15 mi - 310° 310° 8 kt METAR CYOW 240000Z 31008KT 15SM SKC 08/03 A3005 RMK SLP181
7:00 pm
V
52 °F 15 mi - 300° 300° 9 kt METAR CYOW 232300Z 30009KT 15SM FEW040 11/03 A3004 RMK CU1 SLP178
6:00 pm
V
54 °F 15 mi - 310° 310° 11 kt METAR CYOW 232200Z 31011KT 15SM FEW050 12/02 A3003 RMK SC1 SC TR SLP176
5:00 pm
V
55 °F 15 mi - 320° 320° 11 - 18 kt METAR CYOW 232100Z 32011G18KT 15SM FEW050 13/02 A3003 RMK SC2 SLP175
4:00 pm
V
55 °F 15 mi - 300° 300° 15 - 22 kt METAR CYOW 232000Z 30015G22KT 15SM SCT045 13/03 A3003 RMK SC3 SLP173
3:00 pm
V
54 °F 15 mi - 290° 290° 14 - 22 kt METAR CYOW 231900Z 29014G22KT 15SM SCT045 12/02 A3003 RMK SC3 SLP173
2:00 pm
V
54 °F 15 mi - 320° 320° 15 - 23 kt METAR CYOW 231800Z 32015G23KT 15SM SCT040 12/02 A3004 RMK SC4 SLP178
1:00 pm
V
52 °F 15 mi - 340° 340° 15 - 23 kt METAR CYOW 231700Z 34015G23KT 15SM SCT038 11/01 A3006 RMK SC4 SLP183
12:00 pm
V
48 °F 15 mi 3.300 ft 330° 330° 14 - 19 kt METAR CYOW 231600Z 33014G19KT 15SM BKN033 09/01 A3007 RMK SC5 SLP187
11:00 am
V
46 °F 15 mi 3.100 ft 320° 320° 15 - 22 kt METAR CYOW 231500Z 32015G22KT 15SM BKN031 08/01 A3006 RMK SC7 SLP186
10:00 am
V
45 °F 15 mi 3.200 ft 330° 330° 15 - 20 kt METAR CYOW 231400Z 33015G20KT 15SM BKN032 07/01 A3007 RMK SC7 SLP188
9:00 am
M
43 °F 15 mi 2.800 ft 310° 310° 17 kt METAR CYOW 231300Z 31017KT 15SM BKN028 06/00 A3006 RMK SC7 SLP183
8:00 am
M
41 °F 15 mi 2.700 ft 310° 310° 10 kt METAR CYOW 231200Z 31010KT 15SM BKN027 05/01 A3004 RMK SC6 SLP177
7:00 am
V
41 °F 15 mi - 320° 320° 15 - 20 kt METAR CYOW 231100Z 32015G20KT 15SM SCT033 05/M00 A3003 RMK SC4 SLP173
6:00 am
V
39 °F 15 mi - 310° 310° 16 - 21 kt METAR CYOW 231000Z 31016G21KT 15SM SCT035 SCT070 04/M00 A3000 RMK SC3AC1 SLP165
5:00 am
V
41 °F 15 mi - 300° 300° 10 - 16 kt METAR CYOW 230900Z 30010G16KT 15SM SCT035 SCT070 05/00 A2998 RMK SC4AC1 AC TR SLP157
4:00 am
V
43 °F 15 mi 3.300 ft 300° 300° 11 - 18 kt METAR CYOW 230800Z 30011G18KT 15SM BKN033 BKN070 06/01 A2997 RMK SC6AC1 SLP152
3:00 am
V
43 °F 15 mi 3.200 ft 310° 310° 10 - 16 kt METAR CYOW 230700Z 31010G16KT 15SM BKN032 BKN070 06/02 A2994 RMK SC6AC1 AC TR SLP143
2:00 am
M
45 °F 15 mi 2.800 ft 310° 310° 17 kt METAR CYOW 230600Z 31017KT 15SM BKN028 07/02 A2993 RMK SC5 SLP140
1:00 am
V
45 °F 15 mi 3.000 ft 310° 310° 14 kt METAR CYOW 230500Z 31014KT 15SM BKN030 BKN080 07/03 A2992 RMK SC6AC1 AC TR SLP135
Données plus anciennes

Nous et des tiers suivons ton comportement sur Internet sur notre site Web à l'aide de cookies. Si tu continues, nous supposons que tu acceptes notre politique en matière de cookies. Apprendre plus